sim
Sign-in with your pilot id or email,
or register
Callsign
Passwort

Schedule Details

Flight Number: DLH2307 (1)
Departure: Amsterdam Schiphol Airport (EHAM) at 15:50
Arrival: Munich Airport (EDDM) at 17:10
Route: Lufthansa Passenger Schedule. Enter filed route here before submitting Pirep.

Weather Information
Getting current METAR information for EHAM 302355Z 15010KT 120V180 CAVOK 16/13 Q1005 NOSIG
Getting current METAR information for EDDM 302350Z 06002KT 3000 0500NE R08L/0800N R08R/0500N BCFG NSC 05/04 Q1012 NOSIG

Schedule Frequency

Route Map